sensor_id;sensor_type;location;lat;lon;timestamp;pressure;altitude;pressure_sealevel;temperature;humidity
70009;BME280;59542;37.950;-122.338;2022-07-05T00:02:26;101309.16;;;27.98;40.63
70009;BME280;59542;37.950;-122.338;2022-07-05T00:04:52;101302.94;;;27.70;40.49
70009;BME280;59542;37.950;-122.338;2022-07-05T00:07:18;101297.66;;;27.59;41.28
70009;BME280;59542;37.950;-122.338;2022-07-05T00:09:52;101295.72;;;27.60;41.42
70009;BME280;59542;37.950;-122.338;2022-07-05T00:12:22;101301.09;;;27.65;42.19
70009;BME280;59542;37.950;-122.338;2022-07-05T00:14:49;101304.63;;;27.43;42.25
70009;BME280;59542;37.950;-122.338;2022-07-05T00:17:16;101305.06;;;27.09;43.79
70009;BME280;59542;37.950;-122.338;2022-07-05T00:19:42;101301.56;;;26.76;43.58
70009;BME280;59542;37.950;-122.338;2022-07-05T00:22:09;101300.31;;;26.54;43.49
70009;BME280;59542;37.950;-122.338;2022-07-05T00:24:35;101296.09;;;26.11;44.92
70009;BME280;59542;37.950;-122.338;2022-07-05T00:27:02;101289.94;;;25.62;46.01
70009;BME280;59542;37.950;-122.338;2022-07-05T00:29:28;101284.19;;;24.97;47.30
70009;BME280;59542;37.950;-122.338;2022-07-05T00:31:55;101285.56;;;24.70;48.24
70009;BME280;59542;37.950;-122.338;2022-07-05T00:34:21;101284.00;;;24.35;48.64
70009;BME280;59542;37.950;-122.338;2022-07-05T00:36:47;101291.06;;;24.07;50.09
70009;BME280;59542;37.950;-122.338;2022-07-05T00:39:13;101284.84;;;23.96;50.85
70009;BME280;59542;37.950;-122.338;2022-07-05T00:41:40;101279.34;;;23.62;51.34
70009;BME280;59542;37.950;-122.338;2022-07-05T00:44:09;101277.97;;;23.05;52.71
70009;BME280;59542;37.950;-122.338;2022-07-05T00:46:36;101277.72;;;22.97;54.39
70009;BME280;59542;37.950;-122.338;2022-07-05T00:49:04;101275.75;;;23.12;54.59
70009;BME280;59542;37.950;-122.338;2022-07-05T00:51:32;101258.50;;;23.22;53.16
70009;BME280;59542;37.950;-122.338;2022-07-05T00:54:00;101273.91;;;22.87;53.49
70009;BME280;59542;37.950;-122.338;2022-07-05T00:56:27;101278.81;;;22.85;54.28
70009;BME280;59542;37.950;-122.338;2022-07-05T00:58:53;101279.09;;;22.84;54.90
70009;BME280;59542;37.950;-122.338;2022-07-05T01:01:20;101281.03;;;22.68;54.34
70009;BME280;59542;37.950;-122.338;2022-07-05T01:03:46;101270.44;;;22.21;55.21
70009;BME280;59542;37.950;-122.338;2022-07-05T01:06:13;101269.03;;;21.98;56.01
70009;BME280;59542;37.950;-122.338;2022-07-05T01:08:42;101261.69;;;22.03;56.25
70009;BME280;59542;37.950;-122.338;2022-07-05T01:11:10;101264.44;;;21.88;57.93
70009;BME280;59542;37.950;-122.338;2022-07-05T01:13:37;101264.66;;;21.81;57.73
70009;BME280;59542;37.950;-122.338;2022-07-05T01:16:04;101259.22;;;21.92;57.80
70009;BME280;59542;37.950;-122.338;2022-07-05T01:18:31;101261.94;;;21.71;57.62
70009;BME280;59542;37.950;-122.338;2022-07-05T01:20:59;101264.41;;;21.78;58.11
70009;BME280;59542;37.950;-122.338;2022-07-05T01:23:30;101272.56;;;21.73;57.89
70009;BME280;59542;37.950;-122.338;2022-07-05T01:25:58;101265.78;;;22.01;57.71
70009;BME280;59542;37.950;-122.338;2022-07-05T01:28:25;101261.69;;;21.73;57.20
70009;BME280;59542;37.950;-122.338;2022-07-05T01:30:52;101260.03;;;21.87;57.52
70009;BME280;59542;37.950;-122.338;2022-07-05T01:33:18;101263.63;;;22.13;57.53
70009;BME280;59542;37.950;-122.338;2022-07-05T01:35:44;101263.06;;;22.31;56.24
70009;BME280;59542;37.950;-122.338;2022-07-05T01:38:11;101283.22;;;22.71;55.27
70009;BME280;59542;37.950;-122.338;2022-07-05T01:40:38;101281.34;;;22.56;55.43
70009;BME280;59542;37.950;-122.338;2022-07-05T01:43:05;101269.28;;;22.73;55.69
70009;BME280;59542;37.950;-122.338;2022-07-05T01:45:31;101279.41;;;22.62;56.12
70009;BME280;59542;37.950;-122.338;2022-07-05T01:48:10;101274.13;;;23.06;54.45
70009;BME280;59542;37.950;-122.338;2022-07-05T01:50:46;101282.31;;;23.11;53.92
70009;BME280;59542;37.950;-122.338;2022-07-05T01:53:22;101277.31;;;23.29;53.63
70009;BME280;59542;37.950;-122.338;2022-07-05T01:55:49;101282.53;;;23.15;53.68
70009;BME280;59542;37.950;-122.338;2022-07-05T01:58:16;101282.47;;;23.35;53.41
70009;BME280;59542;37.950;-122.338;2022-07-05T02:00:44;101280.72;;;23.60;52.67
70009;BME280;59542;37.950;-122.338;2022-07-05T02:03:11;101283.66;;;23.09;53.37
70009;BME280;59542;37.950;-122.338;2022-07-05T02:05:38;101295.72;;;22.92;54.85
70009;BME280;59542;37.950;-122.338;2022-07-05T02:08:05;101287.00;;;22.96;54.44
70009;BME280;59542;37.950;-122.338;2022-07-05T02:10:31;101286.91;;;23.21;54.77
70009;BME280;59542;37.950;-122.338;2022-07-05T02:12:58;101283.66;;;23.09;54.61
70009;BME280;59542;37.950;-122.338;2022-07-05T02:15:24;101288.81;;;23.21;54.35
70009;BME280;59542;37.950;-122.338;2022-07-05T02:17:50;101290.25;;;23.67;53.27
70009;BME280;59542;37.950;-122.338;2022-07-05T02:20:16;101292.50;;;24.00;51.98
70009;BME280;59542;37.950;-122.338;2022-07-05T02:22:42;101286.66;;;24.11;51.56
70009;BME280;59542;37.950;-122.338;2022-07-05T02:25:11;101296.78;;;24.11;52.13
70009;BME280;59542;37.950;-122.338;2022-07-05T02:27:37;101296.53;;;24.41;51.71
70009;BME280;59542;37.950;-122.338;2022-07-05T02:30:04;101299.31;;;24.36;51.15
70009;BME280;59542;37.950;-122.338;2022-07-05T02:32:30;101301.78;;;23.98;52.00
70009;BME280;59542;37.950;-122.338;2022-07-05T02:34:57;101302.09;;;23.92;52.36
70009;BME280;59542;37.950;-122.338;2022-07-05T02:37:23;101308.19;;;23.84;52.59
70009;BME280;59542;37.950;-122.338;2022-07-05T02:39:49;101308.06;;;23.55;53.57
70009;BME280;59542;37.950;-122.338;2022-07-05T02:42:16;101309.72;;;23.45;54.02
70009;BME280;59542;37.950;-122.338;2022-07-05T02:44:42;101312.63;;;23.10;54.95
70009;BME280;59542;37.950;-122.338;2022-07-05T02:47:08;101315.97;;;22.66;56.30
70009;BME280;59542;37.950;-122.338;2022-07-05T02:49:34;101317.63;;;22.42;56.98
70009;BME280;59542;37.950;-122.338;2022-07-05T02:52:00;101309.44;;;22.36;56.81
70009;BME280;59542;37.950;-122.338;2022-07-05T02:54:27;101301.53;;;22.14;57.64
70009;BME280;59542;37.950;-122.338;2022-07-05T02:56:53;101298.81;;;22.20;57.28
70009;BME280;59542;37.950;-122.338;2022-07-05T03:01:45;101304.75;;;21.86;58.54
70009;BME280;59542;37.950;-122.338;2022-07-05T03:04:11;101297.84;;;21.48;59.74
70009;BME280;59542;37.950;-122.338;2022-07-05T03:06:37;101294.00;;;21.39;60.10
70009;BME280;59542;37.950;-122.338;2022-07-05T03:09:03;101294.53;;;21.41;60.19
70009;BME280;59542;37.950;-122.338;2022-07-05T03:11:30;101298.81;;;21.21;60.80
70009;BME280;59542;37.950;-122.338;2022-07-05T03:13:56;101294.34;;;21.00;61.55
70009;BME280;59542;37.950;-122.338;2022-07-05T03:16:22;101305.72;;;20.92;62.33
70009;BME280;59542;37.950;-122.338;2022-07-05T03:18:50;101301.09;;;20.92;61.92
70009;BME280;59542;37.950;-122.338;2022-07-05T03:21:17;101297.50;;;20.81;62.63
70009;BME280;59542;37.950;-122.338;2022-07-05T03:23:43;101292.16;;;20.97;61.95
70009;BME280;59542;37.950;-122.338;2022-07-05T03:26:09;101300.03;;;20.51;63.44
70009;BME280;59542;37.950;-122.338;2022-07-05T03:28:35;101301.94;;;20.50;63.99
70009;BME280;59542;37.950;-122.338;2022-07-05T03:31:02;101306.09;;;19.99;65.85
70009;BME280;59542;37.950;-122.338;2022-07-05T03:33:28;101304.38;;;20.20;65.66
70009;BME280;59542;37.950;-122.338;2022-07-05T03:35:54;101305.59;;;20.34;65.42
70009;BME280;59542;37.950;-122.338;2022-07-05T03:38:20;101313.50;;;20.09;66.38
70009;BME280;59542;37.950;-122.338;2022-07-05T03:40:47;101314.03;;;20.06;66.22
70009;BME280;59542;37.950;-122.338;2022-07-05T03:43:13;101318.13;;;20.08;66.33
70009;BME280;59542;37.950;-122.338;2022-07-05T03:45:39;101315.06;;;19.99;66.57
70009;BME280;59542;37.950;-122.338;2022-07-05T03:48:05;101316.28;;;19.87;66.55
70009;BME280;59542;37.950;-122.338;2022-07-05T03:50:32;101317.31;;;19.81;66.90
70009;BME280;59542;37.950;-122.338;2022-07-05T03:52:58;101301.72;;;19.71;66.80
70009;BME280;59542;37.950;-122.338;2022-07-05T03:55:24;101309.56;;;19.45;67.53
70009;BME280;59542;37.950;-122.338;2022-07-05T03:57:50;101308.88;;;19.33;68.06
70009;BME280;59542;37.950;-122.338;2022-07-05T04:00:17;101304.53;;;19.32;67.78
70009;BME280;59542;37.950;-122.338;2022-07-05T04:02:43;101300.28;;;19.19;68.61
70009;BME280;59542;37.950;-122.338;2022-07-05T04:05:09;101303.38;;;19.06;69.36
70009;BME280;59542;37.950;-122.338;2022-07-05T04:07:53;101302.31;;;19.07;69.24
70009;BME280;59542;37.950;-122.338;2022-07-05T04:10:20;101308.06;;;19.11;69.12
70009;BME280;59542;37.950;-122.338;2022-07-05T04:12:46;101303.63;;;19.05;69.65
70009;BME280;59542;37.950;-122.338;2022-07-05T04:15:13;101302.03;;;19.09;69.31
70009;BME280;59542;37.950;-122.338;2022-07-05T04:17:51;101301.72;;;18.66;71.21
70009;BME280;59542;37.950;-122.338;2022-07-05T04:20:18;101307.63;;;18.63;71.00
70009;BME280;59542;37.950;-122.338;2022-07-05T04:22:46;101311.75;;;18.49;72.00
70009;BME280;59542;37.950;-122.338;2022-07-05T04:25:13;101312.06;;;18.36;72.60
70009;BME280;59542;37.950;-122.338;2022-07-05T04:27:47;101313.69;;;18.37;72.67
70009;BME280;59542;37.950;-122.338;2022-07-05T04:30:14;101306.72;;;18.41;72.40
70009;BME280;59542;37.950;-122.338;2022-07-05T04:32:41;101303.38;;;18.17;73.48
70009;BME280;59542;37.950;-122.338;2022-07-05T04:35:08;101298.69;;;18.29;73.17
70009;BME280;59542;37.950;-122.338;2022-07-05T04:37:35;101307.44;;;18.19;74.20
70009;BME280;59542;37.950;-122.338;2022-07-05T04:40:05;101303.03;;;18.13;74.11
70009;BME280;59542;37.950;-122.338;2022-07-05T04:42:32;101315.41;;;18.09;74.60
70009;BME280;59542;37.950;-122.338;2022-07-05T04:44:58;101318.09;;;18.09;74.43
70009;BME280;59542;37.950;-122.338;2022-07-05T04:47:25;101322.31;;;18.00;75.28
70009;BME280;59542;37.950;-122.338;2022-07-05T04:49:52;101323.53;;;18.09;74.69
70009;BME280;59542;37.950;-122.338;2022-07-05T04:52:19;101324.22;;;18.16;74.18
70009;BME280;59542;37.950;-122.338;2022-07-05T04:54:45;101316.66;;;18.18;74.29
70009;BME280;59542;37.950;-122.338;2022-07-05T04:57:12;101324.13;;;18.11;75.06
70009;BME280;59542;37.950;-122.338;2022-07-05T04:59:38;101321.16;;;18.13;74.88
70009;BME280;59542;37.950;-122.338;2022-07-05T05:02:04;101322.72;;;18.26;74.97
70009;BME280;59542;37.950;-122.338;2022-07-05T05:04:31;101317.38;;;18.14;75.22
70009;BME280;59542;37.950;-122.338;2022-07-05T05:06:57;101323.88;;;18.13;75.59
70009;BME280;59542;37.950;-122.338;2022-07-05T05:09:24;101326.31;;;18.14;75.64
70009;BME280;59542;37.950;-122.338;2022-07-05T05:11:50;101321.63;;;18.10;75.45
70009;BME280;59542;37.950;-122.338;2022-07-05T05:14:17;101330.44;;;18.17;75.08
70009;BME280;59542;37.950;-122.338;2022-07-05T05:16:43;101331.53;;;18.33;74.63
70009;BME280;59542;37.950;-122.338;2022-07-05T05:19:09;101328.97;;;18.26;74.69
70009;BME280;59542;37.950;-122.338;2022-07-05T05:21:36;101329.75;;;18.10;75.43
70009;BME280;59542;37.950;-122.338;2022-07-05T05:24:02;101333.88;;;18.12;75.28
70009;BME280;59542;37.950;-122.338;2022-07-05T05:26:28;101337.16;;;18.14;75.69
70009;BME280;59542;37.950;-122.338;2022-07-05T05:28:54;101341.19;;;18.12;75.72
70009;BME280;59542;37.950;-122.338;2022-07-05T05:31:21;101342.41;;;18.04;75.90
70009;BME280;59542;37.950;-122.338;2022-07-05T05:33:47;101343.22;;;17.88;76.54
70009;BME280;59542;37.950;-122.338;2022-07-05T05:36:14;101343.88;;;17.95;76.74
70009;BME280;59542;37.950;-122.338;2022-07-05T05:38:40;101339.44;;;17.89;76.80
70009;BME280;59542;37.950;-122.338;2022-07-05T05:41:06;101346.63;;;17.83;77.36
70009;BME280;59542;37.950;-122.338;2022-07-05T05:43:32;101342.59;;;17.86;77.11
70009;BME280;59542;37.950;-122.338;2022-07-05T05:45:59;101338.25;;;17.85;77.39
70009;BME280;59542;37.950;-122.338;2022-07-05T05:48:25;101334.78;;;17.73;77.13
70009;BME280;59542;37.950;-122.338;2022-07-05T05:50:52;101340.97;;;17.85;77.11
70009;BME280;59542;37.950;-122.338;2022-07-05T05:53:18;101335.34;;;18.03;76.23
70009;BME280;59542;37.950;-122.338;2022-07-05T05:55:44;101331.41;;;17.94;75.88
70009;BME280;59542;37.950;-122.338;2022-07-05T05:58:16;101329.25;;;17.96;76.03
70009;BME280;59542;37.950;-122.338;2022-07-05T06:00:43;101333.34;;;17.99;75.97
70009;BME280;59542;37.950;-122.338;2022-07-05T06:03:14;101327.78;;;17.88;76.59
70009;BME280;59542;37.950;-122.338;2022-07-05T06:05:41;101327.78;;;17.88;76.70
70009;BME280;59542;37.950;-122.338;2022-07-05T06:08:07;101334.00;;;17.89;76.42
70009;BME280;59542;37.950;-122.338;2022-07-05T06:10:34;101324.97;;;17.83;76.61
70009;BME280;59542;37.950;-122.338;2022-07-05T06:13:04;101317.34;;;17.97;76.28
70009;BME280;59542;37.950;-122.338;2022-07-05T06:15:31;101323.63;;;18.14;75.33
70009;BME280;59542;37.950;-122.338;2022-07-05T06:17:58;101324.13;;;18.11;75.91
70009;BME280;59542;37.950;-122.338;2022-07-05T06:20:27;101321.09;;;18.25;75.21
70009;BME280;59542;37.950;-122.338;2022-07-05T06:22:55;101323.06;;;18.12;75.95
70009;BME280;59542;37.950;-122.338;2022-07-05T06:25:22;101323.88;;;18.13;75.73
70009;BME280;59542;37.950;-122.338;2022-07-05T06:27:51;101320.75;;;18.21;75.00
70009;BME280;59542;37.950;-122.338;2022-07-05T06:30:19;101318.78;;;18.16;75.34
70009;BME280;59542;37.950;-122.338;2022-07-05T06:32:46;101313.94;;;18.18;75.31
70009;BME280;59542;37.950;-122.338;2022-07-05T06:35:13;101309.78;;;18.28;75.13
70009;BME280;59542;37.950;-122.338;2022-07-05T06:37:50;101311.66;;;18.27;75.32
70009;BME280;59542;37.950;-122.338;2022-07-05T06:40:21;101315.38;;;18.38;74.47
70009;BME280;59542;37.950;-122.338;2022-07-05T06:42:48;101302.28;;;18.35;74.85
70009;BME280;59542;37.950;-122.338;2022-07-05T06:45:14;101307.16;;;18.33;75.32
70009;BME280;59542;37.950;-122.338;2022-07-05T06:47:40;101300.50;;;18.40;74.89
70009;BME280;59542;37.950;-122.338;2022-07-05T06:50:07;101306.47;;;18.26;75.65
70009;BME280;59542;37.950;-122.338;2022-07-05T06:52:34;101298.94;;;18.11;76.19
70009;BME280;59542;37.950;-122.338;2022-07-05T06:55:00;101303.38;;;18.34;75.37
70009;BME280;59542;37.950;-122.338;2022-07-05T06:57:27;101296.78;;;18.30;75.16
70009;BME280;59542;37.950;-122.338;2022-07-05T06:59:53;101297.78;;;18.40;74.95
70009;BME280;59542;37.950;-122.338;2022-07-05T07:02:20;101285.53;;;18.55;74.44
70009;BME280;59542;37.950;-122.338;2022-07-05T07:04:47;101296.63;;;18.53;74.53
70009;BME280;59542;37.950;-122.338;2022-07-05T07:07:14;101303.75;;;18.59;74.73
70009;BME280;59542;37.950;-122.338;2022-07-05T07:09:59;101297.44;;;18.37;75.94
70009;BME280;59542;37.950;-122.338;2022-07-05T07:12:26;101296.44;;;18.43;75.41
70009;BME280;59542;37.950;-122.338;2022-07-05T07:14:53;101291.13;;;18.31;75.83
70009;BME280;59542;37.950;-122.338;2022-07-05T07:17:19;101292.00;;;18.37;75.38
70009;BME280;59542;37.950;-122.338;2022-07-05T07:19:45;101293.91;;;18.36;76.03
70009;BME280;59542;37.950;-122.338;2022-07-05T07:22:12;101294.06;;;18.46;75.32
70009;BME280;59542;37.950;-122.338;2022-07-05T07:24:38;101299.59;;;18.35;75.80
70009;BME280;59542;37.950;-122.338;2022-07-05T07:27:04;101291.19;;;18.36;76.01
70009;BME280;59542;37.950;-122.338;2022-07-05T07:29:35;101290.88;;;18.50;75.85
70009;BME280;59542;37.950;-122.338;2022-07-05T07:32:03;101290.13;;;18.54;75.15
70009;BME280;59542;37.950;-122.338;2022-07-05T07:34:29;101280.03;;;18.66;74.97
70009;BME280;59542;37.950;-122.338;2022-07-05T07:36:56;101285.56;;;18.71;74.83
70009;BME280;59542;37.950;-122.338;2022-07-05T07:39:23;101286.38;;;18.72;74.55
70009;BME280;59542;37.950;-122.338;2022-07-05T07:41:50;101285.03;;;18.75;74.18
70009;BME280;59542;37.950;-122.338;2022-07-05T07:44:17;101280.16;;;18.77;74.31
70009;BME280;59542;37.950;-122.338;2022-07-05T07:46:43;101280.16;;;18.77;74.26
70009;BME280;59542;37.950;-122.338;2022-07-05T07:49:10;101275.91;;;18.81;74.07
70009;BME280;59542;37.950;-122.338;2022-07-05T07:51:40;101273.44;;;18.62;74.50
70009;BME280;59542;37.950;-122.338;2022-07-05T07:54:07;101271.28;;;18.81;74.13
70009;BME280;59542;37.950;-122.338;2022-07-05T07:56:33;101265.56;;;18.78;73.92
70009;BME280;59542;37.950;-122.338;2022-07-05T07:59:00;101257.34;;;18.72;74.10
70009;BME280;59542;37.950;-122.338;2022-07-05T08:01:26;101270.72;;;18.62;74.82
70009;BME280;59542;37.950;-122.338;2022-07-05T08:03:52;101266.31;;;18.56;74.35
70009;BME280;59542;37.950;-122.338;2022-07-05T08:06:19;101262.34;;;18.81;73.60
70009;BME280;59542;37.950;-122.338;2022-07-05T08:08:45;101261.16;;;18.71;74.30
70009;BME280;59542;37.950;-122.338;2022-07-05T08:11:13;101254.94;;;18.76;74.17
70009;BME280;59542;37.950;-122.338;2022-07-05T08:13:40;101260.63;;;18.75;74.08
70009;BME280;59542;37.950;-122.338;2022-07-05T08:16:09;101251.00;;;18.84;73.91
70009;BME280;59542;37.950;-122.338;2022-07-05T08:18:35;101252.00;;;18.78;73.83
70009;BME280;59542;37.950;-122.338;2022-07-05T08:21:20;101257.72;;;18.81;73.97
70009;BME280;59542;37.950;-122.338;2022-07-05T08:24:09;101253.00;;;18.71;75.01
70009;BME280;59542;37.950;-122.338;2022-07-05T08:26:36;101255.03;;;18.64;74.56
70009;BME280;59542;37.950;-122.338;2022-07-05T08:29:05;101256.22;;;18.68;74.34
70009;BME280;59542;37.950;-122.338;2022-07-05T08:31:33;101250.78;;;18.68;74.61
70009;BME280;59542;37.950;-122.338;2022-07-05T08:34:01;101255.22;;;18.75;74.65
70009;BME280;59542;37.950;-122.338;2022-07-05T08:36:27;101257.44;;;18.78;74.38
70009;BME280;59542;37.950;-122.338;2022-07-05T08:38:53;101254.28;;;18.86;74.19
70009;BME280;59542;37.950;-122.338;2022-07-05T08:41:20;101250.47;;;18.87;74.10
70009;BME280;59542;37.950;-122.338;2022-07-05T08:43:48;101259.16;;;18.67;74.87
70009;BME280;59542;37.950;-122.338;2022-07-05T08:46:16;101254.00;;;18.87;74.47
70009;BME280;59542;37.950;-122.338;2022-07-05T08:48:44;101257.34;;;18.72;74.46
70009;BME280;59542;37.950;-122.338;2022-07-05T08:51:21;101263.47;;;18.85;73.98
70009;BME280;59542;37.950;-122.338;2022-07-05T08:53:49;101259.56;;;18.76;74.26
70009;BME280;59542;37.950;-122.338;2022-07-05T08:56:16;101248.59;;;18.87;74.03
70009;BME280;59542;37.950;-122.338;2022-07-05T08:58:43;101252.50;;;18.96;73.92
70009;BME280;59542;37.950;-122.338;2022-07-05T09:01:10;101252.97;;;18.88;73.67
70009;BME280;59542;37.950;-122.338;2022-07-05T09:03:51;101248.03;;;19.07;73.74
70009;BME280;59542;37.950;-122.338;2022-07-05T09:06:20;101247.03;;;18.91;74.21
70009;BME280;59542;37.950;-122.338;2022-07-05T09:08:47;101244.25;;;19.08;73.56
70009;BME280;59542;37.950;-122.338;2022-07-05T09:11:15;101247.72;;;19.04;73.83
70009;BME280;59542;37.950;-122.338;2022-07-05T09:13:49;101247.56;;;19.10;73.91
70009;BME280;59542;37.950;-122.338;2022-07-05T09:16:17;101249.59;;;19.03;74.10
70009;BME280;59542;37.950;-122.338;2022-07-05T09:18:46;101242.75;;;18.95;74.35
70009;BME280;59542;37.950;-122.338;2022-07-05T09:23:40;101231.63;;;18.97;74.31
70009;BME280;59542;37.950;-122.338;2022-07-05T09:26:06;101234.53;;;19.12;73.97
70009;BME280;59542;37.950;-122.338;2022-07-05T09:28:33;101234.09;;;18.98;74.39
70009;BME280;59542;37.950;-122.338;2022-07-05T09:30:59;101245.13;;;19.14;73.80
70009;BME280;59542;37.950;-122.338;2022-07-05T09:33:25;101233.06;;;19.26;73.74
70009;BME280;59542;37.950;-122.338;2022-07-05T09:35:56;101238.88;;;19.13;73.77
70009;BME280;59542;37.950;-122.338;2022-07-05T09:38:25;101239.34;;;19.05;73.96
70009;BME280;59542;37.950;-122.338;2022-07-05T09:40:54;101240.91;;;19.01;74.33
70009;BME280;59542;37.950;-122.338;2022-07-05T09:43:22;101247.16;;;19.02;73.92
70009;BME280;59542;37.950;-122.338;2022-07-05T09:46:02;101244.78;;;19.05;73.77
70009;BME280;59542;37.950;-122.338;2022-07-05T09:48:31;101242.88;;;18.84;74.40
70009;BME280;59542;37.950;-122.338;2022-07-05T09:51:09;101250.06;;;18.95;74.61
70009;BME280;59542;37.950;-122.338;2022-07-05T09:53:56;101242.41;;;18.92;74.48
70009;BME280;59542;37.950;-122.338;2022-07-05T09:56:24;101244.31;;;18.91;74.26
70009;BME280;59542;37.950;-122.338;2022-07-05T09:58:55;101237.69;;;18.82;74.87
70009;BME280;59542;37.950;-122.338;2022-07-05T10:01:29;101235.09;;;18.92;74.61
70009;BME280;59542;37.950;-122.338;2022-07-05T10:03:58;101231.13;;;18.78;75.17
70009;BME280;59542;37.950;-122.338;2022-07-05T10:06:28;101238.59;;;18.88;74.50
70009;BME280;59542;37.950;-122.338;2022-07-05T10:08:55;101241.41;;;18.98;73.83
70009;BME280;59542;37.950;-122.338;2022-07-05T10:11:22;101245.00;;;18.82;74.62
70009;BME280;59542;37.950;-122.338;2022-07-05T10:13:53;101244.13;;;18.98;74.52
70009;BME280;59542;37.950;-122.338;2022-07-05T10:16:21;101239.63;;;19.09;73.97
70009;BME280;59542;37.950;-122.338;2022-07-05T10:18:54;101233.78;;;19.17;73.62
70009;BME280;59542;37.950;-122.338;2022-07-05T10:21:21;101234.41;;;19.24;72.73
70009;BME280;59542;37.950;-122.338;2022-07-05T10:23:51;101227.47;;;19.11;73.57
70009;BME280;59542;37.950;-122.338;2022-07-05T10:26:22;101231.75;;;19.07;74.22
70009;BME280;59542;37.950;-122.338;2022-07-05T10:28:51;101244.25;;;19.08;74.01
70009;BME280;59542;37.950;-122.338;2022-07-05T10:31:18;101242.88;;;19.06;73.89
70009;BME280;59542;37.950;-122.338;2022-07-05T10:33:44;101244.06;;;19.15;73.65
70009;BME280;59542;37.950;-122.338;2022-07-05T10:36:13;101240.59;;;19.19;73.23
70009;BME280;59542;37.950;-122.338;2022-07-05T10:38:42;101238.63;;;19.15;73.39
70009;BME280;59542;37.950;-122.338;2022-07-05T10:41:12;101243.22;;;19.14;74.10
70009;BME280;59542;37.950;-122.338;2022-07-05T10:43:39;101238.75;;;19.03;74.10
70009;BME280;59542;37.950;-122.338;2022-07-05T10:46:06;101238.19;;;19.01;74.40
70009;BME280;59542;37.950;-122.338;2022-07-05T10:48:35;101246.28;;;18.96;74.55
70009;BME280;59542;37.950;-122.338;2022-07-05T10:51:14;101242.88;;;19.06;73.96
70009;BME280;59542;37.950;-122.338;2022-07-05T10:58:37;101243.88;;;18.78;74.09
70009;BME280;59542;37.950;-122.338;2022-07-05T11:06:08;101240.34;;;18.99;73.79
70009;BME280;59542;37.950;-122.338;2022-07-05T11:13:52;101240.91;;;18.79;74.24
70009;BME280;59542;37.950;-122.338;2022-07-05T11:19:05;101240.00;;;18.73;74.31
70009;BME280;59542;37.950;-122.338;2022-07-05T11:21:32;101235.97;;;18.59;75.09
70009;BME280;59542;37.950;-122.338;2022-07-05T11:24:23;101244.34;;;18.75;73.96
70009;BME280;59542;37.950;-122.338;2022-07-05T11:26:51;101240.66;;;18.64;74.46
70009;BME280;59542;37.950;-122.338;2022-07-05T11:29:43;101239.81;;;18.80;73.97
70009;BME280;59542;37.950;-122.338;2022-07-05T11:32:12;101231.81;;;18.90;73.36
70009;BME280;59542;37.950;-122.338;2022-07-05T11:34:42;101239.00;;;18.80;73.54
70009;BME280;59542;37.950;-122.338;2022-07-05T11:37:27;101229.09;;;18.68;74.17
70009;BME280;59542;37.950;-122.338;2022-07-05T11:42:33;101237.44;;;18.67;74.68
70009;BME280;59542;37.950;-122.338;2022-07-05T11:45:09;101233.13;;;18.49;74.73
70009;BME280;59542;37.950;-122.338;2022-07-05T11:47:35;101234.34;;;18.58;75.09
70009;BME280;59542;37.950;-122.338;2022-07-05T11:50:02;101237.50;;;18.50;75.16
70009;BME280;59542;37.950;-122.338;2022-07-05T11:52:34;101238.38;;;18.56;74.82
70009;BME280;59542;37.950;-122.338;2022-07-05T11:55:06;101236.34;;;18.46;75.03
70009;BME280;59542;37.950;-122.338;2022-07-05T11:57:33;101237.50;;;18.50;75.06
70009;BME280;59542;37.950;-122.338;2022-07-05T12:00:00;101241.00;;;18.51;74.88
70009;BME280;59542;37.950;-122.338;2022-07-05T12:02:26;101233.25;;;18.59;74.70
70009;BME280;59542;37.950;-122.338;2022-07-05T12:04:54;101238.19;;;18.62;74.48
70009;BME280;59542;37.950;-122.338;2022-07-05T12:09:54;101222.94;;;18.56;73.72
70009;BME280;59542;37.950;-122.338;2022-07-05T12:12:39;101230.53;;;18.59;73.64
70009;BME280;59542;37.950;-122.338;2022-07-05T12:15:16;101228.91;;;18.58;73.89
70009;BME280;59542;37.950;-122.338;2022-07-05T12:17:47;101228.44;;;18.61;72.97
70009;BME280;59542;37.950;-122.338;2022-07-05T12:20:21;101226.38;;;18.68;72.96
70009;BME280;59542;37.950;-122.338;2022-07-05T12:22:48;101229.66;;;18.54;73.94
70009;BME280;59542;37.950;-122.338;2022-07-05T12:25:20;101233.25;;;18.59;73.49
70009;BME280;59542;37.950;-122.338;2022-07-05T12:27:48;101227.09;;;18.64;72.72
70009;BME280;59542;37.950;-122.338;2022-07-05T12:30:16;101219.91;;;18.36;74.14
70009;BME280;59542;37.950;-122.338;2022-07-05T12:33:08;101223.97;;;18.33;74.37
70009;BME280;59542;37.950;-122.338;2022-07-05T12:35:44;101220.75;;;18.19;75.11
70009;BME280;59542;37.950;-122.338;2022-07-05T12:38:19;101222.91;;;18.17;75.15
70009;BME280;59542;37.950;-122.338;2022-07-05T12:40:57;101220.09;;;18.12;75.40
70009;BME280;59542;37.950;-122.338;2022-07-05T12:43:23;101222.38;;;18.20;75.03
70009;BME280;59542;37.950;-122.338;2022-07-05T12:46:01;101223.38;;;18.14;74.68
70009;BME280;59542;37.950;-122.338;2022-07-05T12:48:35;101222.16;;;18.05;75.09
70009;BME280;59542;37.950;-122.338;2022-07-05T12:51:02;101218.94;;;18.25;74.45
70009;BME280;59542;37.950;-122.338;2022-07-05T12:53:29;101217.97;;;18.14;74.55
70009;BME280;59542;37.950;-122.338;2022-07-05T12:56:15;101220.28;;;18.06;75.36